Time;durP1;ratioP1;P1;durP2;ratioP2;P2;SDS_P1;SDS_P2;PMS_P1;PMS_P2;Temp;Humidity;BMP_temperature;BMP_pressure;BME280_temperature;BME280_humidity;BME280_pressure;Samples;Min_cycle;Max_cycle;Signal;HPM_P1;HPM_P2
2022/05/29 00:00:48;;;;;;;8.60;3.03;;;10.50;99.90;;;;;;5004966;23;20265;-72
2022/05/29 00:03:41;;;;;;;6.77;2.73;;;10.40;99.90;;;;;;4952395;28;20190;-71
2022/05/29 00:06:25;;;;;;;11.40;3.43;;;10.40;99.90;;;;;;4963515;28;20280;-73
2022/05/29 00:09:13;;;;;;;8.77;2.67;;;10.40;99.90;;;;;;4951012;28;20670;-73
2022/05/29 00:11:59;;;;;;;9.37;3.23;;;10.40;99.90;;;;;;4926938;29;20237;-72
2022/05/29 00:14:44;;;;;;;10.00;3.23;;;10.40;99.90;;;;;;4925409;29;20194;-71
2022/05/29 00:17:29;;;;;;;13.37;3.20;;;10.40;99.90;;;;;;4926795;29;20627;-72
2022/05/29 00:20:13;;;;;;;5.60;2.87;;;10.40;99.90;;;;;;4927457;29;20215;-73
2022/05/29 00:22:58;;;;;;;10.73;2.90;;;10.40;99.90;;;;;;4924976;29;20616;-73
2022/05/29 00:25:49;;;;;;;10.83;3.27;;;10.40;99.90;;;;;;4932804;29;20218;-73
2022/05/29 00:28:33;;;;;;;11.47;2.73;;;10.40;99.90;;;;;;4924304;29;20194;-72
2022/05/29 00:31:18;;;;;;;8.97;2.83;;;10.40;99.90;;;;;;4927972;29;20256;-72
2022/05/29 00:34:03;;;;;;;10.40;3.00;;;10.40;99.90;;;;;;4929703;29;20294;-72
2022/05/29 00:36:47;;;;;;;10.20;2.93;;;10.40;99.90;;;;;;4930523;29;20198;-71
2022/05/29 00:39:32;;;;;;;7.40;3.03;;;10.40;99.90;;;;;;4938184;29;20237;-73
2022/05/29 00:42:21;;;;;;;9.87;2.87;;;10.40;99.90;;;;;;4932294;29;20214;-72
2022/05/29 00:45:15;;;;;;;7.97;2.57;;;10.50;99.90;;;;;;4927089;29;20711;-72
2022/05/29 00:48:03;;;;;;;6.60;2.70;;;10.50;99.90;;;;;;4918937;29;20200;-72
2022/05/29 00:50:49;;;;;;;5.10;2.30;;;10.40;99.90;;;;;;4930978;29;20298;-72
2022/05/29 00:53:37;;;;;;;9.90;2.93;;;10.40;99.90;;;;;;4932229;29;20187;-71
2022/05/29 00:56:21;;;;;;;10.10;3.10;;;10.40;99.90;;;;;;4926200;29;20209;-72
2022/05/29 00:59:08;;;;;;;8.63;2.73;;;10.40;99.90;;;;;;4931116;29;20198;-70
2022/05/29 01:01:54;;;;;;;8.37;2.60;;;10.50;99.90;;;;;;4925112;29;20645;-72
2022/05/29 01:04:40;;;;;;;8.37;3.73;;;10.50;99.90;;;;;;4938523;28;20757;-72
2022/05/29 01:07:28;;;;;;;7.93;3.10;;;10.50;99.90;;;;;;4932730;29;20258;-73
2022/05/29 01:10:13;;;;;;;9.50;2.50;;;10.40;99.90;;;;;;4924134;29;20699;-72
2022/05/29 01:13:29;;;;;;;8.10;3.00;;;10.40;99.90;;;;;;4930575;29;20190;-72
2022/05/29 01:16:47;;;;;;;10.77;3.00;;;10.40;99.90;;;;;;4920460;29;20207;-72
2022/05/29 01:19:39;;;;;;;9.27;2.97;;;10.40;99.90;;;;;;4929030;29;20645;-71
2022/05/29 01:22:41;;;;;;;6.87;2.60;;;10.40;99.90;;;;;;4920653;29;20242;-72
2022/05/29 01:25:28;;;;;;;11.40;3.13;;;10.40;99.90;;;;;;4921620;29;20215;-72
2022/05/29 01:28:45;;;;;;;6.70;2.63;;;10.40;99.90;;;;;;4929379;29;20191;-71
2022/05/29 01:31:42;;;;;;;9.10;3.17;;;10.30;99.90;;;;;;4926096;29;21167;-72
2022/05/29 01:34:26;;;;;;;10.10;2.90;;;10.30;99.90;;;;;;4931576;29;20198;-72
2022/05/29 01:37:36;;;;;;;9.67;2.90;;;10.40;99.90;;;;;;4926744;29;20195;-72
2022/05/29 01:40:28;;;;;;;9.30;3.00;;;10.40;99.90;;;;;;4930235;29;20215;-72
2022/05/29 01:43:22;;;;;;;10.90;3.10;;;10.30;99.90;;;;;;4941324;28;20202;-72
2022/05/29 01:46:14;;;;;;;15.27;3.60;;;10.30;99.90;;;;;;4926775;29;20810;-73
2022/05/29 01:49:21;;;;;;;11.83;3.67;;;10.30;99.90;;;;;;4922053;29;20205;-72
2022/05/29 01:52:38;;;;;;;10.30;3.17;;;10.20;99.90;;;;;;4928029;29;20235;-73
2022/05/29 01:56:05;;;;;;;7.00;3.50;;;10.20;99.90;;;;;;4922530;29;20194;-73
2022/05/29 01:58:58;;;;;;;10.97;2.93;;;10.10;99.90;;;;;;4897531;29;20203;-74
2022/05/29 02:01:49;;;;;;;14.67;3.63;;;10.20;99.90;;;;;;4915514;29;20263;-73
2022/05/29 02:04:41;;;;;;;11.27;3.93;;;10.10;99.90;;;;;;4933478;28;20222;-72
2022/05/29 02:10:54;;;;;;;8.97;3.57;;;10.00;99.90;;;;;;4936817;29;20246;-72
2022/05/29 02:13:54;;;;;;;12.67;3.70;;;10.00;99.90;;;;;;4930863;29;20249;-74
2022/05/29 02:16:53;;;;;;;6.57;3.40;;;10.00;99.90;;;;;;4932017;29;20303;-73
2022/05/29 02:19:51;;;;;;;8.67;3.53;;;10.00;99.90;;;;;;4926874;29;20255;-72
2022/05/29 02:22:37;;;;;;;12.17;2.97;;;10.00;99.90;;;;;;4941140;28;20190;-71
2022/05/29 02:25:24;;;;;;;10.40;3.60;;;10.00;99.90;;;;;;4933704;29;20222;-73
2022/05/29 02:28:16;;;;;;;11.93;3.60;;;10.00;99.90;;;;;;4934070;29;20222;-73
2022/05/29 02:31:29;;;;;;;6.77;3.50;;;10.00;99.90;;;;;;4936159;29;20221;-72
2022/05/29 02:34:36;;;;;;;7.23;2.97;;;10.00;99.90;;;;;;4934694;29;20187;-71
2022/05/29 02:37:29;;;;;;;12.10;3.37;;;10.00;99.90;;;;;;4939972;28;20206;-72
2022/05/29 02:40:24;;;;;;;8.83;3.30;;;9.90;99.90;;;;;;4932895;29;20212;-71
2022/05/29 02:43:23;;;;;;;7.63;3.40;;;10.00;99.90;;;;;;4930338;29;20312;-74
2022/05/29 02:46:35;;;;;;;11.73;3.70;;;9.90;99.90;;;;;;4924087;29;20239;-73
2022/05/29 02:49:34;;;;;;;13.87;4.03;;;9.90;99.90;;;;;;4929505;29;20766;-74
2022/05/29 02:52:19;;;;;;;9.50;3.37;;;9.90;99.90;;;;;;4934194;29;20226;-74
2022/05/29 02:55:04;;;;;;;15.47;4.13;;;9.90;99.90;;;;;;4926899;29;20625;-75
2022/05/29 02:57:51;;;;;;;10.40;3.80;;;9.80;99.90;;;;;;4931609;29;20663;-73
2022/05/29 03:01:00;;;;;;;12.23;3.40;;;9.80;99.90;;;;;;4929606;29;20230;-73
2022/05/29 03:03:57;;;;;;;8.30;3.33;;;9.80;99.90;;;;;;4940364;28;20199;-73
2022/05/29 03:07:01;;;;;;;9.83;3.37;;;9.80;99.90;;;;;;4931643;29;20263;-72
2022/05/29 03:10:01;;;;;;;10.27;3.43;;;9.80;99.90;;;;;;4928805;29;20216;-72
2022/05/29 03:12:45;;;;;;;12.70;3.30;;;9.80;99.90;;;;;;4924756;29;20199;-73
2022/05/29 03:16:04;;;;;;;7.30;3.37;;;9.80;99.90;;;;;;4930415;29;20238;-72
2022/05/29 03:19:26;;;;;;;10.43;3.10;;;9.80;99.90;;;;;;4927301;29;20190;-73
2022/05/29 03:22:17;;;;;;;10.67;3.70;;;9.80;99.90;;;;;;4943143;28;20698;-72
2022/05/29 03:25:12;;;;;;;13.00;3.70;;;9.80;99.90;;;;;;4930328;29;20738;-75
2022/05/29 03:28:00;;;;;;;8.97;2.73;;;9.80;99.90;;;;;;4924141;29;20247;-72
2022/05/29 03:30:46;;;;;;;10.20;3.30;;;9.80;99.90;;;;;;4931497;29;20206;-71
2022/05/29 03:33:31;;;;;;;8.77;3.17;;;9.80;99.90;;;;;;4930301;29;20242;-72
2022/05/29 03:36:16;;;;;;;8.07;3.00;;;9.80;99.90;;;;;;4929985;29;20198;-72
2022/05/29 03:39:00;;;;;;;10.40;3.30;;;9.80;99.90;;;;;;4945797;28;20210;-73
2022/05/29 03:41:47;;;;;;;13.03;3.27;;;9.80;99.90;;;;;;4923869;29;20227;-73
2022/05/29 03:44:32;;;;;;;10.60;3.30;;;9.90;99.90;;;;;;4932557;29;20233;-74
2022/05/29 03:47:16;;;;;;;7.40;3.13;;;9.80;99.90;;;;;;4932872;29;20179;-73
2022/05/29 03:50:00;;;;;;;8.13;3.17;;;9.90;99.90;;;;;;4930673;29;20214;-72
2022/05/29 03:52:46;;;;;;;9.20;3.10;;;9.80;99.90;;;;;;4932519;29;20195;-72
2022/05/29 03:55:31;;;;;;;6.73;2.90;;;9.90;99.90;;;;;;4932667;29;20194;-72
2022/05/29 03:58:15;;;;;;;10.13;3.67;;;9.90;99.90;;;;;;4942227;28;20294;-73
2022/05/29 04:01:00;;;;;;;9.97;3.37;;;9.90;99.90;;;;;;4926982;29;20232;-73
2022/05/29 04:03:45;;;;;;;6.47;3.53;;;9.90;99.90;;;;;;4921437;29;20203;-71
2022/05/29 04:06:30;;;;;;;13.87;3.73;;;9.90;99.90;;;;;;4932145;29;20205;-73
2022/05/29 04:12:18;;;;;;;13.23;3.43;;;9.90;99.90;;;;;;4934051;29;20207;-72
2022/05/29 04:15:03;;;;;;;11.33;3.60;;;9.90;99.90;;;;;;4925235;29;20215;-71
2022/05/29 04:17:48;;;;;;;7.10;2.70;;;9.90;99.90;;;;;;4932544;29;20266;-73
2022/05/29 04:20:33;;;;;;;9.33;3.13;;;9.90;99.90;;;;;;4927014;29;20223;-74
2022/05/29 04:23:17;;;;;;;7.33;3.23;;;9.90;99.90;;;;;;4928920;29;20205;-72
2022/05/29 04:26:02;;;;;;;9.97;3.70;;;9.90;99.90;;;;;;4931375;29;20212;-72
2022/05/29 04:28:46;;;;;;;8.10;3.30;;;10.00;99.90;;;;;;4929750;29;20196;-73
2022/05/29 04:31:32;;;;;;;13.07;3.60;;;9.90;99.90;;;;;;4941670;28;20230;-72
2022/05/29 04:34:16;;;;;;;9.73;3.27;;;9.90;99.90;;;;;;4922677;29;20555;-72
2022/05/29 04:37:00;;;;;;;7.97;2.70;;;9.90;99.90;;;;;;4943542;28;20249;-72
2022/05/29 04:39:44;;;;;;;6.87;3.30;;;9.90;99.90;;;;;;4918589;29;20219;-71
2022/05/29 04:42:28;;;;;;;12.67;4.00;;;10.00;99.90;;;;;;4932048;29;20714;-72
2022/05/29 04:45:12;;;;;;;9.20;3.60;;;10.00;99.90;;;;;;4918570;29;20248;-72
2022/05/29 04:47:57;;;;;;;9.90;3.57;;;10.00;99.90;;;;;;4945184;28;20578;-72
2022/05/29 04:50:42;;;;;;;10.23;3.60;;;10.00;99.90;;;;;;4928072;29;20233;-72
2022/05/29 04:53:28;;;;;;;8.20;3.40;;;10.00;99.90;;;;;;4933271;28;20695;-72
2022/05/29 04:56:12;;;;;;;10.63;3.47;;;10.00;99.90;;;;;;4929726;29;20254;-72
2022/05/29 04:58:57;;;;;;;7.33;3.07;;;10.00;99.90;;;;;;4931072;29;20209;-72
2022/05/29 05:01:41;;;;;;;9.70;3.63;;;10.00;99.90;;;;;;4922299;29;20285;-72
2022/05/29 05:04:26;;;;;;;11.33;4.60;;;10.10;99.90;;;;;;4944481;28;20182;-72
2022/05/29 05:07:11;;;;;;;7.87;3.30;;;10.00;99.90;;;;;;4938577;28;20197;-72
2022/05/29 05:09:55;;;;;;;7.17;3.03;;;10.00;99.90;;;;;;4921518;29;20630;-74
2022/05/29 05:12:39;;;;;;;13.57;3.87;;;10.10;99.90;;;;;;4919648;29;20207;-72
2022/05/29 05:15:24;;;;;;;8.67;3.50;;;10.10;99.90;;;;;;4916880;29;20187;-71
2022/05/29 05:18:08;;;;;;;12.67;3.77;;;10.10;99.90;;;;;;4925752;29;20202;-72
2022/05/29 05:20:53;;;;;;;10.97;3.63;;;10.10;99.90;;;;;;4929534;29;20751;-73
2022/05/29 05:23:37;;;;;;;10.57;3.77;;;10.20;99.90;;;;;;4929096;29;20186;-71
2022/05/29 05:26:21;;;;;;;9.43;3.83;;;10.10;99.90;;;;;;4929673;29;20219;-73
2022/05/29 05:29:05;;;;;;;8.47;3.67;;;10.20;99.90;;;;;;4934561;29;20194;-73
2022/05/29 05:31:50;;;;;;;10.43;3.50;;;10.20;99.90;;;;;;4927710;29;20239;-71
2022/05/29 05:34:34;;;;;;;7.97;3.20;;;10.20;99.90;;;;;;4935843;29;20598;-73
2022/05/29 05:37:18;;;;;;;10.70;3.80;;;10.20;99.90;;;;;;4931512;29;20195;-73
2022/05/29 05:40:05;;;;;;;8.57;3.47;;;10.20;99.90;;;;;;4936220;29;20217;-73
2022/05/29 05:42:50;;;;;;;10.23;3.77;;;10.20;99.90;;;;;;4935558;29;20239;-73
2022/05/29 05:45:34;;;;;;;8.43;3.80;;;10.20;99.90;;;;;;4934131;29;20210;-72
2022/05/29 05:48:18;;;;;;;12.33;4.07;;;10.20;99.90;;;;;;4934570;29;20215;-73
2022/05/29 05:51:04;;;;;;;10.47;3.70;;;10.30;99.90;;;;;;4927795;29;20244;-72
2022/05/29 05:53:48;;;;;;;11.27;3.27;;;10.30;99.90;;;;;;4927719;29;20197;-72
2022/05/29 05:56:32;;;;;;;11.47;3.70;;;10.30;99.90;;;;;;4941919;28;20202;-72
2022/05/29 05:59:20;;;;;;;8.67;3.63;;;10.30;99.90;;;;;;4925309;29;20269;-72
2022/05/29 06:02:09;;;;;;;6.67;3.20;;;10.30;99.90;;;;;;4944134;28;20210;-73
2022/05/29 06:04:53;;;;;;;10.17;3.70;;;10.30;99.90;;;;;;4934954;29;20284;-73
2022/05/29 06:07:37;;;;;;;6.90;3.10;;;10.30;99.90;;;;;;4946827;28;20194;-72
2022/05/29 06:10:22;;;;;;;7.83;3.60;;;10.30;99.90;;;;;;4925635;29;20223;-72
2022/05/29 06:13:07;;;;;;;7.30;3.63;;;10.40;99.90;;;;;;4929489;29;20199;-71
2022/05/29 06:15:51;;;;;;;8.63;3.40;;;10.40;99.90;;;;;;4932475;29;20202;-71
2022/05/29 06:18:36;;;;;;;16.43;4.47;;;10.40;99.90;;;;;;4931382;29;20203;-71
2022/05/29 06:21:20;;;;;;;9.50;3.60;;;10.40;99.90;;;;;;4929796;29;20217;-71
2022/05/29 06:24:05;;;;;;;10.63;3.40;;;10.50;99.90;;;;;;4923827;29;20215;-71
2022/05/29 06:26:49;;;;;;;9.57;3.53;;;10.50;99.90;;;;;;4932139;29;20316;-72
2022/05/29 06:29:34;;;;;;;8.63;3.30;;;10.50;99.90;;;;;;4931522;29;20275;-72
2022/05/29 06:32:18;;;;;;;5.10;2.80;;;10.60;99.90;;;;;;4934218;29;20194;-73
2022/05/29 06:35:03;;;;;;;9.13;3.20;;;10.60;99.90;;;;;;4931319;29;20666;-71
2022/05/29 06:37:48;;;;;;;8.63;2.90;;;10.60;99.90;;;;;;4931501;29;20235;-73
2022/05/29 06:40:31;;;;;;;7.73;3.30;;;10.60;99.90;;;;;;4927824;29;20225;-72
2022/05/29 06:43:16;;;;;;;9.87;3.20;;;10.50;99.90;;;;;;4930330;29;20211;-72
2022/05/29 06:46:01;;;;;;;14.00;3.40;;;10.50;99.90;;;;;;4947394;28;20217;-73
2022/05/29 06:48:45;;;;;;;9.57;3.30;;;10.50;99.90;;;;;;4927108;29;20569;-74
2022/05/29 06:51:30;;;;;;;10.37;3.43;;;10.50;99.90;;;;;;4945447;28;20240;-72
2022/05/29 06:54:15;;;;;;;9.90;3.23;;;10.50;99.90;;;;;;4929849;29;20219;-72
2022/05/29 06:56:59;;;;;;;17.93;3.83;;;10.50;99.90;;;;;;4930355;29;20206;-73
2022/05/29 07:08:52;;;;;;;9.20;2.70;;;10.60;99.90;;;;;;4929420;29;20198;-73
2022/05/29 07:11:41;;;;;;;7.73;3.00;;;10.60;99.90;;;;;;4943845;28;20221;-73
2022/05/29 07:14:25;;;;;;;10.67;2.73;;;10.70;99.90;;;;;;4926788;29;20198;-73
2022/05/29 07:17:11;;;;;;;13.37;2.97;;;10.60;99.90;;;;;;4929497;29;20187;-71
2022/05/29 07:19:55;;;;;;;10.37;2.47;;;10.70;99.90;;;;;;4932582;29;20227;-71
2022/05/29 07:22:41;;;;;;;7.97;2.43;;;10.70;99.90;;;;;;4942604;28;20270;-72
2022/05/29 07:25:26;;;;;;;12.07;2.70;;;10.70;99.90;;;;;;4945743;28;20335;-72
2022/05/29 07:28:10;;;;;;;6.40;2.60;;;10.80;99.90;;;;;;4933274;29;20190;-71
2022/05/29 07:30:55;;;;;;;9.50;3.00;;;10.80;99.90;;;;;;4929531;29;20222;-71
2022/05/29 07:33:39;;;;;;;8.53;2.40;;;10.80;99.90;;;;;;4932622;29;20211;-72
2022/05/29 07:36:26;;;;;;;7.53;2.30;;;10.90;99.90;;;;;;4929473;29;20693;-72
2022/05/29 07:39:11;;;;;;;14.13;2.83;;;10.90;99.90;;;;;;4943841;28;20194;-71
2022/05/29 07:45:02;;;;;;;9.17;2.67;;;11.00;99.90;;;;;;4926091;29;20235;-72
2022/05/29 07:47:46;;;;;;;8.40;2.83;;;11.00;99.90;;;;;;4929666;29;20202;-73
2022/05/29 07:50:31;;;;;;;10.60;1.83;;;11.10;99.90;;;;;;4942594;28;20274;-71
2022/05/29 07:53:15;;;;;;;8.10;1.80;;;11.10;99.90;;;;;;4921026;29;20211;-72
2022/05/29 07:56:01;;;;;;;13.17;2.23;;;11.20;99.90;;;;;;4936634;28;20218;-71
2022/05/29 07:58:46;;;;;;;13.90;2.37;;;11.20;99.90;;;;;;4923469;29;20209;-72
2022/05/29 08:01:30;;;;;;;11.57;2.60;;;11.20;99.90;;;;;;4928240;29;20291;-71
2022/05/29 08:04:15;;;;;;;10.93;3.10;;;11.20;99.90;;;;;;4928806;29;20199;-72
2022/05/29 08:06:59;;;;;;;13.17;2.93;;;11.30;99.90;;;;;;4944720;28;20198;-72
2022/05/29 08:09:43;;;;;;;7.80;1.93;;;11.30;99.90;;;;;;4924539;29;20210;-72
2022/05/29 08:12:27;;;;;;;13.63;1.90;;;11.30;99.90;;;;;;4923131;29;20214;-71
2022/05/29 08:15:13;;;;;;;6.00;2.40;;;11.30;99.90;;;;;;4924139;29;20242;-71
2022/05/29 08:17:57;;;;;;;9.40;2.10;;;11.30;99.90;;;;;;4923455;29;20190;-71
2022/05/29 08:20:41;;;;;;;6.33;2.43;;;11.20;99.90;;;;;;4921739;29;20217;-72
2022/05/29 08:23:26;;;;;;;7.70;2.20;;;11.20;99.90;;;;;;4934279;29;20274;-71
2022/05/29 08:32:16;;;;;;;8.37;2.30;;;11.10;99.90;;;;;;4928603;29;20186;-70
2022/05/29 08:35:00;;;;;;;11.30;3.30;;;11.10;99.90;;;;;;4923984;29;20495;-70
2022/05/29 08:37:44;;;;;;;7.20;2.13;;;11.10;99.90;;;;;;4939673;28;20675;-71
2022/05/29 08:40:31;;;;;;;10.07;2.30;;;11.20;99.90;;;;;;4926504;29;20426;-70
2022/05/29 08:43:33;;;;;;;8.97;2.23;;;11.20;99.90;;;;;;4929684;29;20475;-70
2022/05/29 08:46:52;;;;;;;8.93;1.93;;;11.30;99.90;;;;;;4938966;28;20262;-70
2022/05/29 08:49:46;;;;;;;7.57;1.97;;;11.30;99.90;;;;;;4925286;29;20338;-70
2022/05/29 08:52:33;;;;;;;10.73;1.43;;;11.30;99.90;;;;;;4925403;29;20183;-71
2022/05/29 08:55:22;;;;;;;4.03;1.73;;;11.30;99.90;;;;;;4924853;29;20200;-70
2022/05/29 08:58:23;;;;;;;9.03;2.00;;;11.40;99.90;;;;;;4927717;29;20246;-70
2022/05/29 09:01:20;;;;;;;5.50;1.40;;;11.40;99.90;;;;;;4940630;28;20234;-70
2022/05/29 09:04:10;;;;;;;9.70;1.80;;;11.40;99.90;;;;;;4927743;29;20695;-69
2022/05/29 09:06:58;;;;;;;6.03;1.70;;;11.50;99.90;;;;;;4924676;29;20251;-70
2022/05/29 09:09:55;;;;;;;5.47;1.60;;;11.50;99.90;;;;;;4921982;29;20715;-70
2022/05/29 09:12:51;;;;;;;8.17;1.83;;;11.60;99.90;;;;;;4929534;29;20182;-69
2022/05/29 09:15:47;;;;;;;6.33;1.70;;;11.60;99.90;;;;;;4922198;29;20207;-70
2022/05/29 09:18:37;;;;;;;8.37;1.53;;;11.70;99.90;;;;;;4918690;29;20207;-70
2022/05/29 09:21:26;;;;;;;5.90;1.20;;;11.70;99.90;;;;;;4928886;29;20299;-70
2022/05/29 09:24:21;;;;;;;7.93;1.70;;;11.80;99.90;;;;;;4924262;29;20270;-70
2022/05/29 09:27:06;;;;;;;7.53;1.50;;;11.80;99.90;;;;;;4916892;29;20198;-70
2022/05/29 09:29:51;;;;;;;7.33;1.67;;;11.80;99.90;;;;;;4927433;29;20214;-70
2022/05/29 09:32:48;;;;;;;9.63;1.40;;;11.90;99.90;;;;;;4942507;28;20210;-71
2022/05/29 09:35:47;;;;;;;7.43;1.60;;;11.90;99.90;;;;;;4925832;29;20196;-71
2022/05/29 09:38:39;;;;;;;4.83;1.20;;;11.90;99.90;;;;;;4926526;29;20198;-71
2022/05/29 09:41:35;;;;;;;5.67;1.40;;;11.90;99.90;;;;;;4920636;29;20306;-71
2022/05/29 09:44:21;;;;;;;7.00;1.83;;;12.00;99.90;;;;;;4927019;29;20196;-71
2022/05/29 09:50:12;;;;;;;5.20;1.13;;;12.10;99.90;;;;;;4926857;29;20234;-72
2022/05/29 09:52:56;;;;;;;3.57;0.90;;;12.20;99.90;;;;;;4927261;29;20195;-70
2022/05/29 09:56:08;;;;;;;8.03;1.00;;;12.30;99.90;;;;;;4940502;28;20295;-72
2022/05/29 09:58:56;;;;;;;4.33;1.40;;;12.20;99.90;;;;;;4919842;29;20242;-72
2022/05/29 10:01:45;;;;;;;6.93;1.40;;;12.20;99.90;;;;;;4939600;28;20258;-72
2022/05/29 10:04:39;;;;;;;4.17;1.00;;;12.10;99.90;;;;;;4919117;29;20200;-71
2022/05/29 10:07:45;;;;;;;6.83;1.40;;;12.20;99.90;;;;;;4924868;29;20210;-72
2022/05/29 10:10:33;;;;;;;8.23;1.20;;;12.30;99.90;;;;;;4931387;29;20814;-72
2022/05/29 10:13:37;;;;;;;5.13;1.70;;;12.30;99.90;;;;;;4942868;28;20190;-72
2022/05/29 10:16:36;;;;;;;3.93;1.20;;;12.30;99.90;;;;;;4943570;28;20246;-72
2022/05/29 10:19:41;;;;;;;9.30;1.57;;;12.30;99.90;;;;;;4929535;29;20298;-72
2022/05/29 10:22:29;;;;;;;9.00;1.30;;;12.40;99.90;;;;;;4925707;29;20203;-72
2022/05/29 10:25:16;;;;;;;3.33;1.00;;;12.40;99.90;;;;;;4925027;29;20231;-71
2022/05/29 10:28:11;;;;;;;5.70;1.00;;;12.50;99.90;;;;;;4926174;29;20259;-71
2022/05/29 10:31:05;;;;;;;3.50;0.97;;;12.60;99.90;;;;;;4931879;29;20218;-72
2022/05/29 10:34:13;;;;;;;3.63;1.10;;;12.40;99.90;;;;;;4929835;29;20235;-72
2022/05/29 10:36:59;;;;;;;5.83;1.00;;;12.40;99.90;;;;;;4936748;28;20254;-72
2022/05/29 10:39:43;;;;;;;4.63;1.00;;;12.30;99.90;;;;;;4927691;29;20215;-73
2022/05/29 10:42:44;;;;;;;4.10;1.10;;;12.30;99.90;;;;;;4931369;29;20259;-72
2022/05/29 10:45:40;;;;;;;5.87;1.33;;;12.20;99.90;;;;;;4943657;28;20214;-73
2022/05/29 10:48:57;;;;;;;4.30;1.20;;;12.30;99.90;;;;;;4927666;29;20551;-72
2022/05/29 10:51:49;;;;;;;3.50;1.07;;;12.30;99.90;;;;;;4928669;29;20207;-72
2022/05/29 10:54:42;;;;;;;2.07;1.10;;;12.30;99.90;;;;;;4930556;29;20198;-72
2022/05/29 10:57:57;;;;;;;3.40;1.10;;;12.30;99.90;;;;;;4921958;29;20195;-73
2022/05/29 11:01:00;;;;;;;3.03;0.90;;;12.30;99.90;;;;;;4946562;28;20226;-72
2022/05/29 11:04:12;;;;;;;2.37;1.03;;;12.40;99.90;;;;;;4931582;29;20238;-74
2022/05/29 11:07:22;;;;;;;4.37;1.20;;;12.30;99.90;;;;;;4929881;29;20258;-74
2022/05/29 11:10:26;;;;;;;3.53;0.90;;;12.30;99.90;;;;;;4924519;29;20219;-73
2022/05/29 11:13:28;;;;;;;3.77;1.00;;;12.40;99.90;;;;;;4930113;29;20222;-73
2022/05/29 11:16:19;;;;;;;2.40;1.03;;;12.50;99.90;;;;;;4933193;29;20222;-75
2022/05/29 11:19:46;;;;;;;5.30;1.40;;;12.60;99.90;;;;;;4925487;29;20214;-74
2022/05/29 11:22:39;;;;;;;5.30;1.77;;;12.70;99.90;;;;;;4928572;29;20215;-75
2022/05/29 11:25:42;;;;;;;4.73;1.00;;;12.70;99.90;;;;;;4930994;29;20296;-73
2022/05/29 11:28:41;;;;;;;2.07;0.90;;;12.70;99.90;;;;;;4946705;28;20234;-74
2022/05/29 11:31:40;;;;;;;5.20;0.97;;;12.70;99.90;;;;;;4925007;29;20218;-74
2022/05/29 11:34:52;;;;;;;7.03;1.47;;;12.70;99.90;;;;;;4932646;29;20271;-73
2022/05/29 11:37:41;;;;;;;8.10;1.30;;;12.80;99.90;;;;;;4927364;29;20186;-74
2022/05/29 11:40:35;;;;;;;4.10;1.20;;;12.90;99.90;;;;;;4922584;29;20308;-73
2022/05/29 11:43:50;;;;;;;8.60;1.73;;;12.90;99.90;;;;;;4932874;29;20228;-74
2022/05/29 11:53:14;;;;;;;5.27;1.20;;;13.20;99.90;;;;;;4929825;29;20219;-73
2022/05/29 11:56:03;;;;;;;3.57;1.00;;;13.20;99.90;;;;;;4930727;29;20190;-74
2022/05/29 11:58:56;;;;;;;7.00;1.63;;;13.20;99.90;;;;;;4928977;29;20440;-75
2022/05/29 12:01:44;;;;;;;4.13;1.10;;;13.20;99.90;;;;;;4928019;29;20231;-76
2022/05/29 12:04:38;;;;;;;5.80;1.40;;;13.10;99.90;;;;;;4944186;28;20189;-75
2022/05/29 12:07:39;;;;;;;4.20;1.57;;;13.00;99.90;;;;;;4928384;29;20611;-73
2022/05/29 12:10:27;;;;;;;5.13;1.17;;;13.00;99.90;;;;;;4932622;29;20235;-73
2022/05/29 12:13:15;;;;;;;4.20;1.43;;;12.90;99.90;;;;;;4928000;29;20296;-72
2022/05/29 12:16:12;;;;;;;4.50;1.10;;;12.80;99.90;;;;;;4927369;29;20288;-74
2022/05/29 12:18:59;;;;;;;3.43;0.97;;;12.70;99.90;;;;;;4925343;29;20252;-72
2022/05/29 12:22:01;;;;;;;6.20;1.33;;;12.50;99.90;;;;;;4927263;29;20218;-74
2022/05/29 12:24:50;;;;;;;5.23;0.90;;;12.30;99.90;;;;;;4930360;29;20195;-73
2022/05/29 12:27:35;;;;;;;3.47;0.97;;;12.10;99.90;;;;;;4932086;29;20195;-73
2022/05/29 12:30:30;;;;;;;1.53;0.70;;;12.00;99.90;;;;;;4942291;28;20234;-74
2022/05/29 12:33:21;;;;;;;3.87;1.40;;;11.90;99.90;;;;;;4933946;29;20242;-74
2022/05/29 12:36:21;;;;;;;4.07;1.13;;;11.90;99.90;;;;;;4929544;29;20199;-74
2022/05/29 12:39:32;;;;;;;5.10;1.40;;;11.80;99.90;;;;;;4929674;29;20194;-72
2022/05/29 12:42:54;;;;;;;3.53;1.20;;;11.90;99.90;;;;;;4928278;29;20286;-72
2022/05/29 12:46:01;;;;;;;3.53;1.00;;;11.90;99.90;;;;;;4918955;29;20214;-72
2022/05/29 12:49:06;;;;;;;4.17;1.20;;;11.90;99.90;;;;;;4917521;29;20234;-73
2022/05/29 12:51:57;;;;;;;5.27;1.47;;;12.00;99.90;;;;;;4926213;29;20250;-72
2022/05/29 12:55:04;;;;;;;6.30;1.87;;;12.10;99.90;;;;;;4932085;29;20211;-72
2022/05/29 12:57:48;;;;;;;1.43;0.60;;;12.10;99.90;;;;;;4927058;29;20191;-72
2022/05/29 13:01:11;;;;;;;3.22;0.77;;;12.00;99.90;;;;;;4924901;29;20411;-73
2022/05/29 13:04:10;;;;;;;3.77;1.10;;;12.00;99.90;;;;;;4931845;29;20298;-72
2022/05/29 13:07:22;;;;;;;4.03;0.60;;;12.10;99.90;;;;;;4941397;28;20254;-73
2022/05/29 13:10:20;;;;;;;3.33;1.05;;;12.10;99.90;;;;;;4935690;28;20428;-72
2022/05/29 13:13:19;;;;;;;3.13;1.00;;;12.10;99.90;;;;;;4927069;29;20738;-71
2022/05/29 13:16:33;;;;;;;5.77;0.90;;;12.10;99.90;;;;;;4931238;29;20206;-71
2022/05/29 13:19:17;;;;;;;5.53;1.30;;;12.10;99.90;;;;;;4921458;29;20197;-71
2022/05/29 13:22:05;;;;;;;6.10;1.20;;;12.10;99.90;;;;;;4931033;29;20443;-72
2022/05/29 13:25:03;;;;;;;2.03;0.83;;;12.10;99.90;;;;;;4929896;29;20427;-72
2022/05/29 13:27:48;;;;;;;3.83;0.80;;;12.20;99.90;;;;;;4923016;29;20187;-72
2022/05/29 13:30:41;;;;;;;4.67;1.10;;;12.10;99.90;;;;;;4927711;29;20710;-72
2022/05/29 13:33:28;;;;;;;3.47;1.00;;;12.10;99.90;;;;;;4938695;28;20247;-72
2022/05/29 13:36:53;;;;;;;2.63;0.80;;;12.10;99.90;;;;;;4924143;29;20418;-72
2022/05/29 13:39:57;;;;;;;5.67;1.17;;;12.20;99.90;;;;;;4884856;29;20208;-71
2022/05/29 13:42:49;;;;;;;3.80;0.70;;;12.30;99.90;;;;;;4877940;29;20787;-72
2022/05/29 13:45:34;;;;;;;3.93;0.90;;;12.30;99.90;;;;;;4926771;29;20202;-71
2022/05/29 13:48:27;;;;;;;4.97;0.80;;;12.30;99.90;;;;;;4927615;29;20281;-71
2022/05/29 13:51:11;;;;;;;1.90;1.03;;;12.40;99.90;;;;;;4933228;29;20214;-72
2022/05/29 13:54:02;;;;;;;5.00;0.90;;;12.40;99.90;;;;;;4923021;29;20190;-72
2022/05/29 13:57:04;;;;;;;2.13;0.80;;;12.40;99.90;;;;;;4924460;29;20211;-72
2022/05/29 14:05:59;;;;;;;4.93;1.13;;;12.30;99.90;;;;;;4929083;29;20278;-72
2022/05/29 14:09:03;;;;;;;5.20;1.30;;;12.40;99.90;;;;;;4945525;28;20198;-72
2022/05/29 14:12:19;;;;;;;8.00;1.83;;;12.30;99.90;;;;;;4933878;29;20564;-72
2022/05/29 14:15:31;;;;;;;4.93;1.50;;;12.30;99.90;;;;;;4919448;29;20213;-71
2022/05/29 14:18:26;;;;;;;7.33;1.10;;;12.20;99.90;;;;;;4918137;29;20203;-71
2022/05/29 14:21:41;;;;;;;4.50;1.20;;;12.10;99.90;;;;;;4923381;29;20222;-72
2022/05/29 14:24:45;;;;;;;4.73;1.30;;;12.00;99.90;;;;;;4930734;29;20191;-72
2022/05/29 14:28:05;;;;;;;5.73;1.30;;;11.90;99.90;;;;;;4929339;29;20218;-72
2022/05/29 14:31:06;;;;;;;4.13;1.47;;;11.90;99.90;;;;;;4934950;29;20224;-71
2022/05/29 14:33:50;;;;;;;8.03;1.40;;;11.90;99.90;;;;;;4927826;29;20190;-71
2022/05/29 14:36:53;;;;;;;6.53;1.73;;;11.70;99.90;;;;;;4923625;29;20315;-71
2022/05/29 14:39:49;;;;;;;7.67;1.33;;;11.70;99.90;;;;;;4929151;29;20690;-72
2022/05/29 14:42:43;;;;;;;6.00;1.20;;;11.70;99.90;;;;;;4928971;29;20203;-71
2022/05/29 14:45:29;;;;;;;5.27;1.17;;;11.70;99.90;;;;;;4946064;28;20211;-71
2022/05/29 14:48:24;;;;;;;5.13;1.20;;;11.70;99.90;;;;;;4931599;29;20231;-72
2022/05/29 14:51:22;;;;;;;4.57;1.10;;;11.60;99.90;;;;;;4947403;28;20266;-70
2022/05/29 14:54:25;;;;;;;3.60;1.07;;;11.60;99.90;;;;;;4938344;28;20207;-71
2022/05/29 14:57:44;;;;;;;4.97;1.00;;;11.60;99.90;;;;;;4931187;29;20261;-68
2022/05/29 15:00:30;;;;;;;4.38;1.30;;;11.70;99.90;;;;;;4922313;29;20440;-71
2022/05/29 15:03:27;;;;;;;4.83;1.30;;;11.70;99.90;;;;;;4931996;29;20230;-70
2022/05/29 15:06:17;;;;;;;7.68;1.80;;;11.70;99.90;;;;;;4924661;29;20478;-70
2022/05/29 15:12:05;;;;;;;3.23;1.13;;;12.00;99.90;;;;;;4929702;29;20251;-71
2022/05/29 15:15:34;;;;;;;4.33;1.20;;;12.00;99.90;;;;;;4929191;29;20206;-72
2022/05/29 15:18:29;;;;;;;6.10;1.40;;;12.00;99.90;;;;;;4932164;29;20190;-72
2022/05/29 15:24:25;;;;;;;5.13;1.30;;;11.80;99.90;;;;;;4933992;29;20266;-71
2022/05/29 15:27:15;;;;;;;2.30;0.90;;;11.60;99.90;;;;;;4923684;29;20246;-72
2022/05/29 15:29:59;;;;;;;3.43;1.00;;;11.40;99.90;;;;;;4933050;29;20215;-71
2022/05/29 15:32:47;;;;;;;7.07;1.20;;;11.30;99.90;;;;;;4925568;29;20283;-72
2022/05/29 15:36:01;;;;;;;5.63;1.13;;;11.30;99.90;;;;;;4942108;28;20191;-71
2022/05/29 15:39:11;;;;;;;8.13;1.93;;;11.20;99.90;;;;;;4944692;28;20278;-72
2022/05/29 15:42:04;;;;;;;3.90;1.17;;;11.20;99.90;;;;;;4929704;29;20679;-72